sensor_id;sensor_type;location;lat;lon;timestamp;temperature;humidity
40996;DHT22;26723;57.478;12.066;2023-12-20T00:00:14;4.60;99.90
40996;DHT22;26723;57.478;12.066;2023-12-20T00:03:22;4.60;99.90
40996;DHT22;26723;57.478;12.066;2023-12-20T00:06:32;4.60;99.90
40996;DHT22;26723;57.478;12.066;2023-12-20T00:09:41;4.60;99.90
40996;DHT22;26723;57.478;12.066;2023-12-20T00:12:51;4.50;99.90
40996;DHT22;26723;57.478;12.066;2023-12-20T00:15:59;4.60;99.90
40996;DHT22;26723;57.478;12.066;2023-12-20T00:19:08;4.50;99.90
40996;DHT22;26723;57.478;12.066;2023-12-20T00:22:17;4.50;99.90
40996;DHT22;26723;57.478;12.066;2023-12-20T00:25:26;4.50;99.90
40996;DHT22;26723;57.478;12.066;2023-12-20T00:28:37;4.40;99.90
40996;DHT22;26723;57.478;12.066;2023-12-20T00:31:45;4.50;99.90
40996;DHT22;26723;57.478;12.066;2023-12-20T00:34:54;4.50;99.90
40996;DHT22;26723;57.478;12.066;2023-12-20T00:38:03;4.50;99.90
40996;DHT22;26723;57.478;12.066;2023-12-20T00:41:14;4.50;99.90
40996;DHT22;26723;57.478;12.066;2023-12-20T00:44:24;4.60;99.90
40996;DHT22;26723;57.478;12.066;2023-12-20T00:47:33;4.70;99.90
40996;DHT22;26723;57.478;12.066;2023-12-20T00:50:42;4.70;99.90
40996;DHT22;26723;57.478;12.066;2023-12-20T00:53:50;4.70;99.90
40996;DHT22;26723;57.478;12.066;2023-12-20T00:57:02;4.70;99.90
40996;DHT22;26723;57.478;12.066;2023-12-20T01:00:13;4.60;99.90
40996;DHT22;26723;57.478;12.066;2023-12-20T01:03:24;4.60;99.90
40996;DHT22;26723;57.478;12.066;2023-12-20T01:06:32;4.60;99.90
40996;DHT22;26723;57.478;12.066;2023-12-20T01:09:41;4.60;99.90
40996;DHT22;26723;57.478;12.066;2023-12-20T01:12:49;4.60;99.90
40996;DHT22;26723;57.478;12.066;2023-12-20T01:15:59;4.60;99.90
40996;DHT22;26723;57.478;12.066;2023-12-20T01:19:08;4.70;99.90
40996;DHT22;26723;57.478;12.066;2023-12-20T01:22:17;4.70;99.90
40996;DHT22;26723;57.478;12.066;2023-12-20T01:25:27;4.70;99.90
40996;DHT22;26723;57.478;12.066;2023-12-20T01:28:38;4.70;99.90
40996;DHT22;26723;57.478;12.066;2023-12-20T01:31:48;4.70;99.90
40996;DHT22;26723;57.478;12.066;2023-12-20T01:34:56;4.70;99.90
40996;DHT22;26723;57.478;12.066;2023-12-20T01:38:09;4.70;99.90
40996;DHT22;26723;57.478;12.066;2023-12-20T01:41:17;4.70;99.90
40996;DHT22;26723;57.478;12.066;2023-12-20T01:44:26;4.80;99.90
40996;DHT22;26723;57.478;12.066;2023-12-20T01:47:36;4.80;99.90
40996;DHT22;26723;57.478;12.066;2023-12-20T01:50:46;4.80;99.90
40996;DHT22;26723;57.478;12.066;2023-12-20T01:53:55;4.80;99.90
40996;DHT22;26723;57.478;12.066;2023-12-20T01:57:05;4.80;99.90
40996;DHT22;26723;57.478;12.066;2023-12-20T02:00:15;4.70;99.90
40996;DHT22;26723;57.478;12.066;2023-12-20T02:03:25;4.80;99.90
40996;DHT22;26723;57.478;12.066;2023-12-20T02:06:34;4.80;99.90
40996;DHT22;26723;57.478;12.066;2023-12-20T02:09:42;4.80;99.90
40996;DHT22;26723;57.478;12.066;2023-12-20T02:12:51;4.90;99.90
40996;DHT22;26723;57.478;12.066;2023-12-20T02:16:00;4.90;99.90
40996;DHT22;26723;57.478;12.066;2023-12-20T02:19:14;4.90;99.90
40996;DHT22;26723;57.478;12.066;2023-12-20T02:22:25;5.00;99.90
40996;DHT22;26723;57.478;12.066;2023-12-20T02:25:33;5.00;99.90
40996;DHT22;26723;57.478;12.066;2023-12-20T02:28:42;5.10;99.90
40996;DHT22;26723;57.478;12.066;2023-12-20T02:31:50;5.10;99.90
40996;DHT22;26723;57.478;12.066;2023-12-20T02:34:59;5.10;99.90
40996;DHT22;26723;57.478;12.066;2023-12-20T02:38:09;5.10;99.90
40996;DHT22;26723;57.478;12.066;2023-12-20T02:41:18;5.10;99.90
40996;DHT22;26723;57.478;12.066;2023-12-20T02:44:26;5.10;99.90
40996;DHT22;26723;57.478;12.066;2023-12-20T02:47:35;5.10;99.90
40996;DHT22;26723;57.478;12.066;2023-12-20T02:50:43;5.20;99.90
40996;DHT22;26723;57.478;12.066;2023-12-20T02:53:54;5.20;99.90
40996;DHT22;26723;57.478;12.066;2023-12-20T02:57:03;5.20;99.90
40996;DHT22;26723;57.478;12.066;2023-12-20T03:00:13;5.20;99.90
40996;DHT22;26723;57.478;12.066;2023-12-20T03:03:21;5.20;99.90
40996;DHT22;26723;57.478;12.066;2023-12-20T03:06:30;5.20;99.90
40996;DHT22;26723;57.478;12.066;2023-12-20T03:09:40;5.20;99.90
40996;DHT22;26723;57.478;12.066;2023-12-20T03:13:09;5.20;99.90
40996;DHT22;26723;57.478;12.066;2023-12-20T03:16:17;5.20;99.90
40996;DHT22;26723;57.478;12.066;2023-12-20T03:19:26;5.20;99.90
40996;DHT22;26723;57.478;12.066;2023-12-20T03:22:36;5.20;99.90
40996;DHT22;26723;57.478;12.066;2023-12-20T03:25:46;5.20;99.90
40996;DHT22;26723;57.478;12.066;2023-12-20T03:28:55;5.30;99.90
40996;DHT22;26723;57.478;12.066;2023-12-20T03:32:03;5.20;99.90
40996;DHT22;26723;57.478;12.066;2023-12-20T03:35:12;5.20;99.90
40996;DHT22;26723;57.478;12.066;2023-12-20T03:38:21;5.20;99.90
40996;DHT22;26723;57.478;12.066;2023-12-20T03:41:32;5.20;99.90
40996;DHT22;26723;57.478;12.066;2023-12-20T03:44:41;5.10;99.90
40996;DHT22;26723;57.478;12.066;2023-12-20T03:47:49;5.10;99.90
40996;DHT22;26723;57.478;12.066;2023-12-20T03:51:02;5.10;99.90
40996;DHT22;26723;57.478;12.066;2023-12-20T03:54:11;5.10;99.90
40996;DHT22;26723;57.478;12.066;2023-12-20T03:57:21;5.10;99.90
40996;DHT22;26723;57.478;12.066;2023-12-20T04:00:29;5.10;99.90
40996;DHT22;26723;57.478;12.066;2023-12-20T04:03:38;5.10;99.90
40996;DHT22;26723;57.478;12.066;2023-12-20T04:06:47;5.10;99.90
40996;DHT22;26723;57.478;12.066;2023-12-20T04:09:56;5.10;99.90
40996;DHT22;26723;57.478;12.066;2023-12-20T04:13:06;5.10;99.90
40996;DHT22;26723;57.478;12.066;2023-12-20T04:16:15;5.00;99.90
40996;DHT22;26723;57.478;12.066;2023-12-20T04:19:23;5.00;99.90
40996;DHT22;26723;57.478;12.066;2023-12-20T04:22:32;5.00;99.90
40996;DHT22;26723;57.478;12.066;2023-12-20T04:25:41;5.00;99.90
40996;DHT22;26723;57.478;12.066;2023-12-20T04:28:51;5.00;99.90
40996;DHT22;26723;57.478;12.066;2023-12-20T04:32:01;5.10;99.90
40996;DHT22;26723;57.478;12.066;2023-12-20T04:35:10;5.10;99.90
40996;DHT22;26723;57.478;12.066;2023-12-20T04:38:19;5.10;99.90
40996;DHT22;26723;57.478;12.066;2023-12-20T04:41:27;5.10;99.90
40996;DHT22;26723;57.478;12.066;2023-12-20T04:44:37;5.10;99.90
40996;DHT22;26723;57.478;12.066;2023-12-20T04:47:46;5.10;99.90
40996;DHT22;26723;57.478;12.066;2023-12-20T04:50:55;5.10;99.90
40996;DHT22;26723;57.478;12.066;2023-12-20T04:54:04;5.10;99.90
40996;DHT22;26723;57.478;12.066;2023-12-20T04:57:12;5.10;99.90
40996;DHT22;26723;57.478;12.066;2023-12-20T05:00:25;5.10;99.90
40996;DHT22;26723;57.478;12.066;2023-12-20T05:03:33;5.10;99.90
40996;DHT22;26723;57.478;12.066;2023-12-20T05:06:42;5.10;99.90
40996;DHT22;26723;57.478;12.066;2023-12-20T05:09:51;5.10;99.90
40996;DHT22;26723;57.478;12.066;2023-12-20T05:13:01;5.10;99.90
40996;DHT22;26723;57.478;12.066;2023-12-20T05:16:12;5.10;99.90
40996;DHT22;26723;57.478;12.066;2023-12-20T05:19:21;5.10;99.90
40996;DHT22;26723;57.478;12.066;2023-12-20T05:22:30;5.20;99.90
40996;DHT22;26723;57.478;12.066;2023-12-20T05:25:38;5.20;99.90
40996;DHT22;26723;57.478;12.066;2023-12-20T05:28:47;5.10;99.90
40996;DHT22;26723;57.478;12.066;2023-12-20T05:31:58;5.20;99.90
40996;DHT22;26723;57.478;12.066;2023-12-20T05:35:07;5.20;99.90
40996;DHT22;26723;57.478;12.066;2023-12-20T05:38:16;5.20;99.90
40996;DHT22;26723;57.478;12.066;2023-12-20T05:41:25;5.20;99.90
40996;DHT22;26723;57.478;12.066;2023-12-20T05:44:33;5.20;99.90
40996;DHT22;26723;57.478;12.066;2023-12-20T05:47:44;5.20;99.90
40996;DHT22;26723;57.478;12.066;2023-12-20T05:50:53;5.10;99.90
40996;DHT22;26723;57.478;12.066;2023-12-20T05:54:01;5.10;99.90
40996;DHT22;26723;57.478;12.066;2023-12-20T05:57:10;5.10;99.90
40996;DHT22;26723;57.478;12.066;2023-12-20T06:00:19;5.10;99.90
40996;DHT22;26723;57.478;12.066;2023-12-20T06:03:29;5.10;99.90
40996;DHT22;26723;57.478;12.066;2023-12-20T06:06:41;5.10;99.90
40996;DHT22;26723;57.478;12.066;2023-12-20T06:09:50;5.10;99.90
40996;DHT22;26723;57.478;12.066;2023-12-20T06:12:59;5.10;99.90
40996;DHT22;26723;57.478;12.066;2023-12-20T06:16:08;5.20;99.90
40996;DHT22;26723;57.478;12.066;2023-12-20T06:19:19;5.10;99.90
40996;DHT22;26723;57.478;12.066;2023-12-20T06:22:28;5.20;99.90
40996;DHT22;26723;57.478;12.066;2023-12-20T06:25:36;5.20;99.90
40996;DHT22;26723;57.478;12.066;2023-12-20T06:28:45;5.20;99.90
40996;DHT22;26723;57.478;12.066;2023-12-20T06:31:54;5.10;99.90
40996;DHT22;26723;57.478;12.066;2023-12-20T06:35:05;5.10;99.90
40996;DHT22;26723;57.478;12.066;2023-12-20T06:38:13;5.10;99.90
40996;DHT22;26723;57.478;12.066;2023-12-20T06:41:22;5.10;99.90
40996;DHT22;26723;57.478;12.066;2023-12-20T06:44:31;5.10;99.90
40996;DHT22;26723;57.478;12.066;2023-12-20T06:47:40;5.10;99.90
40996;DHT22;26723;57.478;12.066;2023-12-20T06:50:50;5.10;99.90
40996;DHT22;26723;57.478;12.066;2023-12-20T06:53:58;5.10;99.90
40996;DHT22;26723;57.478;12.066;2023-12-20T06:57:09;5.00;99.90
40996;DHT22;26723;57.478;12.066;2023-12-20T07:00:18;4.90;99.90
40996;DHT22;26723;57.478;12.066;2023-12-20T07:03:28;4.90;99.90
40996;DHT22;26723;57.478;12.066;2023-12-20T07:06:38;4.90;99.90
40996;DHT22;26723;57.478;12.066;2023-12-20T07:09:46;4.90;99.90
40996;DHT22;26723;57.478;12.066;2023-12-20T07:12:55;4.90;99.90
40996;DHT22;26723;57.478;12.066;2023-12-20T07:16:04;4.80;99.90
40996;DHT22;26723;57.478;12.066;2023-12-20T07:19:13;4.80;99.90
40996;DHT22;26723;57.478;12.066;2023-12-20T07:22:23;4.80;99.90
40996;DHT22;26723;57.478;12.066;2023-12-20T07:25:32;4.80;99.90
40996;DHT22;26723;57.478;12.066;2023-12-20T07:28:40;4.80;99.90
40996;DHT22;26723;57.478;12.066;2023-12-20T07:31:49;4.80;99.90
40996;DHT22;26723;57.478;12.066;2023-12-20T07:34:59;4.80;99.90
40996;DHT22;26723;57.478;12.066;2023-12-20T07:38:09;4.80;99.90
40996;DHT22;26723;57.478;12.066;2023-12-20T07:41:19;4.80;99.90
40996;DHT22;26723;57.478;12.066;2023-12-20T07:44:28;4.70;99.90
40996;DHT22;26723;57.478;12.066;2023-12-20T07:47:37;4.80;99.90
40996;DHT22;26723;57.478;12.066;2023-12-20T07:50:45;4.80;99.90
40996;DHT22;26723;57.478;12.066;2023-12-20T07:53:56;4.80;99.90
40996;DHT22;26723;57.478;12.066;2023-12-20T07:57:05;4.80;99.90
40996;DHT22;26723;57.478;12.066;2023-12-20T08:00:14;4.80;99.90
40996;DHT22;26723;57.478;12.066;2023-12-20T08:03:24;4.80;99.90
40996;DHT22;26723;57.478;12.066;2023-12-20T08:06:32;4.80;99.90
40996;DHT22;26723;57.478;12.066;2023-12-20T08:09:42;4.80;99.90
40996;DHT22;26723;57.478;12.066;2023-12-20T08:12:51;4.80;99.90
40996;DHT22;26723;57.478;12.066;2023-12-20T08:15:59;4.80;99.90
40996;DHT22;26723;57.478;12.066;2023-12-20T08:19:12;4.80;99.90
40996;DHT22;26723;57.478;12.066;2023-12-20T08:22:21;4.90;99.90
40996;DHT22;26723;57.478;12.066;2023-12-20T08:25:31;4.90;99.90
40996;DHT22;26723;57.478;12.066;2023-12-20T08:28:39;4.90;99.90
40996;DHT22;26723;57.478;12.066;2023-12-20T08:31:52;4.90;99.90
40996;DHT22;26723;57.478;12.066;2023-12-20T08:35:01;4.90;99.90
40996;DHT22;26723;57.478;12.066;2023-12-20T08:38:11;4.90;99.90
40996;DHT22;26723;57.478;12.066;2023-12-20T08:41:21;5.00;99.90
40996;DHT22;26723;57.478;12.066;2023-12-20T08:44:29;5.00;99.90
40996;DHT22;26723;57.478;12.066;2023-12-20T08:47:38;5.00;99.90
40996;DHT22;26723;57.478;12.066;2023-12-20T08:50:48;5.00;99.90
40996;DHT22;26723;57.478;12.066;2023-12-20T08:53:58;5.10;99.90
40996;DHT22;26723;57.478;12.066;2023-12-20T08:57:08;5.10;99.90
40996;DHT22;26723;57.478;12.066;2023-12-20T09:00:18;5.10;99.90
40996;DHT22;26723;57.478;12.066;2023-12-20T09:03:28;5.10;99.90
40996;DHT22;26723;57.478;12.066;2023-12-20T09:06:37;5.10;99.90
40996;DHT22;26723;57.478;12.066;2023-12-20T09:09:45;5.10;99.90
40996;DHT22;26723;57.478;12.066;2023-12-20T09:12:56;5.10;99.90
40996;DHT22;26723;57.478;12.066;2023-12-20T09:16:05;5.10;99.90
40996;DHT22;26723;57.478;12.066;2023-12-20T09:19:14;5.10;99.90
40996;DHT22;26723;57.478;12.066;2023-12-20T09:22:23;5.10;99.90
40996;DHT22;26723;57.478;12.066;2023-12-20T09:25:31;5.10;99.90
40996;DHT22;26723;57.478;12.066;2023-12-20T09:28:41;5.10;99.90
40996;DHT22;26723;57.478;12.066;2023-12-20T09:31:50;5.10;99.90
40996;DHT22;26723;57.478;12.066;2023-12-20T09:34:59;5.10;99.90
40996;DHT22;26723;57.478;12.066;2023-12-20T09:38:08;5.10;99.90
40996;DHT22;26723;57.478;12.066;2023-12-20T09:41:17;5.10;99.90
40996;DHT22;26723;57.478;12.066;2023-12-20T09:44:27;5.10;99.90
40996;DHT22;26723;57.478;12.066;2023-12-20T09:47:36;5.10;99.90
40996;DHT22;26723;57.478;12.066;2023-12-20T09:50:48;5.10;99.90
40996;DHT22;26723;57.478;12.066;2023-12-20T09:54:00;5.10;99.90
40996;DHT22;26723;57.478;12.066;2023-12-20T09:57:11;5.10;99.90
40996;DHT22;26723;57.478;12.066;2023-12-20T10:00:21;5.00;99.90
40996;DHT22;26723;57.478;12.066;2023-12-20T10:03:31;5.00;99.90
40996;DHT22;26723;57.478;12.066;2023-12-20T10:06:40;5.00;99.90
40996;DHT22;26723;57.478;12.066;2023-12-20T10:09:51;5.00;99.90
40996;DHT22;26723;57.478;12.066;2023-12-20T10:13:04;5.00;99.90
40996;DHT22;26723;57.478;12.066;2023-12-20T10:16:14;5.00;99.90
40996;DHT22;26723;57.478;12.066;2023-12-20T10:19:22;5.00;99.90
40996;DHT22;26723;57.478;12.066;2023-12-20T10:22:32;5.00;99.90
40996;DHT22;26723;57.478;12.066;2023-12-20T10:25:40;5.00;99.90
40996;DHT22;26723;57.478;12.066;2023-12-20T10:28:52;5.00;99.90
40996;DHT22;26723;57.478;12.066;2023-12-20T10:32:22;5.00;99.90
40996;DHT22;26723;57.478;12.066;2023-12-20T10:35:31;5.00;99.90
40996;DHT22;26723;57.478;12.066;2023-12-20T10:38:42;5.00;99.90
40996;DHT22;26723;57.478;12.066;2023-12-20T10:41:50;5.00;99.90
40996;DHT22;26723;57.478;12.066;2023-12-20T10:45:00;4.90;99.90
40996;DHT22;26723;57.478;12.066;2023-12-20T10:48:10;4.90;99.90
40996;DHT22;26723;57.478;12.066;2023-12-20T10:51:20;4.90;99.90
40996;DHT22;26723;57.478;12.066;2023-12-20T10:54:30;4.90;99.90
40996;DHT22;26723;57.478;12.066;2023-12-20T10:57:40;5.00;99.90
40996;DHT22;26723;57.478;12.066;2023-12-20T11:00:54;5.00;99.90
40996;DHT22;26723;57.478;12.066;2023-12-20T11:04:09;5.10;99.90
40996;DHT22;26723;57.478;12.066;2023-12-20T11:07:23;5.10;99.90
40996;DHT22;26723;57.478;12.066;2023-12-20T11:10:42;5.00;99.90
40996;DHT22;26723;57.478;12.066;2023-12-20T11:13:57;5.10;99.90
40996;DHT22;26723;57.478;12.066;2023-12-20T11:17:07;5.00;99.90
40996;DHT22;26723;57.478;12.066;2023-12-20T11:20:18;5.10;99.90
40996;DHT22;26723;57.478;12.066;2023-12-20T11:23:27;5.10;99.90
40996;DHT22;26723;57.478;12.066;2023-12-20T11:26:36;5.10;99.90
40996;DHT22;26723;57.478;12.066;2023-12-20T11:29:51;5.20;99.90
40996;DHT22;26723;57.478;12.066;2023-12-20T11:33:00;5.20;99.90
40996;DHT22;26723;57.478;12.066;2023-12-20T11:36:17;5.20;99.90
40996;DHT22;26723;57.478;12.066;2023-12-20T11:39:28;5.20;99.90
40996;DHT22;26723;57.478;12.066;2023-12-20T11:42:39;5.20;99.90
40996;DHT22;26723;57.478;12.066;2023-12-20T11:45:49;5.10;99.90
40996;DHT22;26723;57.478;12.066;2023-12-20T11:49:00;5.10;99.90
40996;DHT22;26723;57.478;12.066;2023-12-20T11:52:13;5.10;99.90
40996;DHT22;26723;57.478;12.066;2023-12-20T11:55:22;5.10;99.90
40996;DHT22;26723;57.478;12.066;2023-12-20T11:58:31;5.20;99.90
40996;DHT22;26723;57.478;12.066;2023-12-20T12:01:40;5.10;99.90
40996;DHT22;26723;57.478;12.066;2023-12-20T12:04:49;5.10;99.90
40996;DHT22;26723;57.478;12.066;2023-12-20T12:08:00;5.10;99.90
40996;DHT22;26723;57.478;12.066;2023-12-20T12:11:10;5.00;99.90
40996;DHT22;26723;57.478;12.066;2023-12-20T12:14:19;5.00;99.90
40996;DHT22;26723;57.478;12.066;2023-12-20T12:17:28;4.90;99.90
40996;DHT22;26723;57.478;12.066;2023-12-20T12:20:39;4.90;99.90
40996;DHT22;26723;57.478;12.066;2023-12-20T12:23:49;4.80;99.90
40996;DHT22;26723;57.478;12.066;2023-12-20T12:26:58;4.90;99.90
40996;DHT22;26723;57.478;12.066;2023-12-20T12:30:08;5.00;99.90
40996;DHT22;26723;57.478;12.066;2023-12-20T12:33:17;5.10;99.90
40996;DHT22;26723;57.478;12.066;2023-12-20T12:36:27;5.10;99.90
40996;DHT22;26723;57.478;12.066;2023-12-20T12:39:37;5.10;99.90
40996;DHT22;26723;57.478;12.066;2023-12-20T12:42:46;5.20;99.90
40996;DHT22;26723;57.478;12.066;2023-12-20T12:45:55;5.30;99.90
40996;DHT22;26723;57.478;12.066;2023-12-20T12:49:04;5.40;99.90
40996;DHT22;26723;57.478;12.066;2023-12-20T12:52:14;5.40;99.90
40996;DHT22;26723;57.478;12.066;2023-12-20T12:55:24;5.40;99.90
40996;DHT22;26723;57.478;12.066;2023-12-20T12:58:33;5.40;99.90
40996;DHT22;26723;57.478;12.066;2023-12-20T13:01:42;5.20;99.90
40996;DHT22;26723;57.478;12.066;2023-12-20T13:04:50;5.10;99.90
40996;DHT22;26723;57.478;12.066;2023-12-20T13:08:00;5.10;99.90
40996;DHT22;26723;57.478;12.066;2023-12-20T13:11:10;5.10;99.90
40996;DHT22;26723;57.478;12.066;2023-12-20T13:14:19;5.20;99.90
40996;DHT22;26723;57.478;12.066;2023-12-20T13:17:27;5.20;99.90
40996;DHT22;26723;57.478;12.066;2023-12-20T13:20:38;5.30;99.90
40996;DHT22;26723;57.478;12.066;2023-12-20T13:23:47;5.30;99.90
40996;DHT22;26723;57.478;12.066;2023-12-20T13:26:57;5.30;99.90
40996;DHT22;26723;57.478;12.066;2023-12-20T13:30:06;5.30;99.90
40996;DHT22;26723;57.478;12.066;2023-12-20T13:33:18;5.20;99.90
40996;DHT22;26723;57.478;12.066;2023-12-20T13:36:28;5.20;99.90
40996;DHT22;26723;57.478;12.066;2023-12-20T13:39:38;5.10;99.90
40996;DHT22;26723;57.478;12.066;2023-12-20T13:42:49;5.00;99.90
40996;DHT22;26723;57.478;12.066;2023-12-20T13:46:04;5.00;99.90
40996;DHT22;26723;57.478;12.066;2023-12-20T13:49:13;5.00;99.90
40996;DHT22;26723;57.478;12.066;2023-12-20T13:52:22;4.90;99.90
40996;DHT22;26723;57.478;12.066;2023-12-20T13:55:31;4.90;99.90
40996;DHT22;26723;57.478;12.066;2023-12-20T13:58:41;4.90;99.90
40996;DHT22;26723;57.478;12.066;2023-12-20T14:01:49;4.90;99.90
40996;DHT22;26723;57.478;12.066;2023-12-20T14:04:58;4.90;99.90
40996;DHT22;26723;57.478;12.066;2023-12-20T14:08:09;4.90;99.90
40996;DHT22;26723;57.478;12.066;2023-12-20T14:11:18;4.90;99.90
40996;DHT22;26723;57.478;12.066;2023-12-20T14:14:32;4.90;99.90
40996;DHT22;26723;57.478;12.066;2023-12-20T14:17:41;4.90;99.90
40996;DHT22;26723;57.478;12.066;2023-12-20T14:20:54;4.90;99.90
40996;DHT22;26723;57.478;12.066;2023-12-20T14:24:03;4.90;99.90
40996;DHT22;26723;57.478;12.066;2023-12-20T14:27:14;4.90;99.90
40996;DHT22;26723;57.478;12.066;2023-12-20T14:30:31;4.90;99.90
40996;DHT22;26723;57.478;12.066;2023-12-20T14:33:40;4.90;99.90
40996;DHT22;26723;57.478;12.066;2023-12-20T14:36:49;4.90;99.90
40996;DHT22;26723;57.478;12.066;2023-12-20T14:39:59;4.90;99.90
40996;DHT22;26723;57.478;12.066;2023-12-20T14:43:09;4.90;99.90
40996;DHT22;26723;57.478;12.066;2023-12-20T14:46:19;4.90;99.90
40996;DHT22;26723;57.478;12.066;2023-12-20T14:49:28;4.90;99.90
40996;DHT22;26723;57.478;12.066;2023-12-20T14:52:37;4.80;99.90
40996;DHT22;26723;57.478;12.066;2023-12-20T14:55:46;4.80;99.90
40996;DHT22;26723;57.478;12.066;2023-12-20T14:58:55;4.80;99.90
40996;DHT22;26723;57.478;12.066;2023-12-20T15:02:10;4.80;99.90
40996;DHT22;26723;57.478;12.066;2023-12-20T15:05:19;4.70;99.90
40996;DHT22;26723;57.478;12.066;2023-12-20T15:08:30;4.70;99.90
40996;DHT22;26723;57.478;12.066;2023-12-20T15:11:39;4.70;99.90
40996;DHT22;26723;57.478;12.066;2023-12-20T15:14:49;4.70;99.90
40996;DHT22;26723;57.478;12.066;2023-12-20T15:17:59;4.60;99.90
40996;DHT22;26723;57.478;12.066;2023-12-20T15:21:07;4.70;99.90
40996;DHT22;26723;57.478;12.066;2023-12-20T15:24:16;4.70;99.90
40996;DHT22;26723;57.478;12.066;2023-12-20T15:27:27;4.80;99.90
40996;DHT22;26723;57.478;12.066;2023-12-20T15:30:35;4.80;99.90
40996;DHT22;26723;57.478;12.066;2023-12-20T15:33:46;4.80;99.90
40996;DHT22;26723;57.478;12.066;2023-12-20T15:36:57;4.80;99.90
40996;DHT22;26723;57.478;12.066;2023-12-20T15:40:08;4.80;99.90
40996;DHT22;26723;57.478;12.066;2023-12-20T15:43:18;4.80;99.90
40996;DHT22;26723;57.478;12.066;2023-12-20T15:46:27;4.80;99.90
40996;DHT22;26723;57.478;12.066;2023-12-20T15:49:38;4.80;99.90
40996;DHT22;26723;57.478;12.066;2023-12-20T15:52:47;4.70;99.90
40996;DHT22;26723;57.478;12.066;2023-12-20T15:55:55;4.60;99.90
40996;DHT22;26723;57.478;12.066;2023-12-20T15:59:04;4.60;99.90
40996;DHT22;26723;57.478;12.066;2023-12-20T16:02:13;4.50;99.90
40996;DHT22;26723;57.478;12.066;2023-12-20T16:05:24;4.50;99.90
40996;DHT22;26723;57.478;12.066;2023-12-20T16:08:33;4.50;99.90
40996;DHT22;26723;57.478;12.066;2023-12-20T16:11:41;4.50;99.90
40996;DHT22;26723;57.478;12.066;2023-12-20T16:14:51;4.60;99.90
40996;DHT22;26723;57.478;12.066;2023-12-20T16:18:00;4.50;99.90
40996;DHT22;26723;57.478;12.066;2023-12-20T16:21:10;4.50;99.90
40996;DHT22;26723;57.478;12.066;2023-12-20T16:24:19;4.40;99.90
40996;DHT22;26723;57.478;12.066;2023-12-20T16:27:30;4.40;99.90
40996;DHT22;26723;57.478;12.066;2023-12-20T16:30:39;4.40;99.90
40996;DHT22;26723;57.478;12.066;2023-12-20T16:33:47;4.30;99.90
40996;DHT22;26723;57.478;12.066;2023-12-20T16:37:02;4.30;99.90
40996;DHT22;26723;57.478;12.066;2023-12-20T16:40:11;4.30;99.90
40996;DHT22;26723;57.478;12.066;2023-12-20T16:43:20;4.30;99.90
40996;DHT22;26723;57.478;12.066;2023-12-20T16:46:30;4.30;99.90
40996;DHT22;26723;57.478;12.066;2023-12-20T16:49:38;4.20;99.90
40996;DHT22;26723;57.478;12.066;2023-12-20T16:52:49;4.20;99.90
40996;DHT22;26723;57.478;12.066;2023-12-20T16:55:59;4.20;99.90
40996;DHT22;26723;57.478;12.066;2023-12-20T16:59:07;4.20;99.90
40996;DHT22;26723;57.478;12.066;2023-12-20T17:02:16;4.20;99.90
40996;DHT22;26723;57.478;12.066;2023-12-20T17:05:26;4.20;99.90
40996;DHT22;26723;57.478;12.066;2023-12-20T17:08:37;4.20;99.90
40996;DHT22;26723;57.478;12.066;2023-12-20T17:11:45;4.20;99.90
40996;DHT22;26723;57.478;12.066;2023-12-20T17:14:54;4.20;99.90
40996;DHT22;26723;57.478;12.066;2023-12-20T17:18:02;4.20;99.90
40996;DHT22;26723;57.478;12.066;2023-12-20T17:21:13;4.20;99.90
40996;DHT22;26723;57.478;12.066;2023-12-20T17:24:23;4.20;99.90
40996;DHT22;26723;57.478;12.066;2023-12-20T17:27:32;4.10;99.90
40996;DHT22;26723;57.478;12.066;2023-12-20T17:30:40;4.10;99.90
40996;DHT22;26723;57.478;12.066;2023-12-20T17:33:53;4.10;99.90
40996;DHT22;26723;57.478;12.066;2023-12-20T17:37:02;4.10;99.90
40996;DHT22;26723;57.478;12.066;2023-12-20T17:40:12;4.10;99.90
40996;DHT22;26723;57.478;12.066;2023-12-20T17:43:21;4.10;99.90
40996;DHT22;26723;57.478;12.066;2023-12-20T17:46:30;4.10;99.90
40996;DHT22;26723;57.478;12.066;2023-12-20T17:49:39;4.00;99.90
40996;DHT22;26723;57.478;12.066;2023-12-20T17:52:48;4.00;99.90
40996;DHT22;26723;57.478;12.066;2023-12-20T17:55:58;4.00;99.90
40996;DHT22;26723;57.478;12.066;2023-12-20T17:59:06;4.00;99.90
40996;DHT22;26723;57.478;12.066;2023-12-20T18:02:15;4.00;99.90
40996;DHT22;26723;57.478;12.066;2023-12-20T18:05:24;4.00;99.90
40996;DHT22;26723;57.478;12.066;2023-12-20T18:08:32;4.00;99.90
40996;DHT22;26723;57.478;12.066;2023-12-20T18:11:42;4.00;99.90
40996;DHT22;26723;57.478;12.066;2023-12-20T18:14:51;4.00;99.90
40996;DHT22;26723;57.478;12.066;2023-12-20T18:17:59;4.00;99.90
40996;DHT22;26723;57.478;12.066;2023-12-20T18:21:08;4.00;99.90
40996;DHT22;26723;57.478;12.066;2023-12-20T18:24:17;4.10;99.90
40996;DHT22;26723;57.478;12.066;2023-12-20T18:27:27;4.10;99.90
40996;DHT22;26723;57.478;12.066;2023-12-20T18:30:35;4.10;99.90
40996;DHT22;26723;57.478;12.066;2023-12-20T18:33:44;4.20;99.90
40996;DHT22;26723;57.478;12.066;2023-12-20T18:36:53;4.10;99.90
40996;DHT22;26723;57.478;12.066;2023-12-20T18:40:02;4.10;99.90
40996;DHT22;26723;57.478;12.066;2023-12-20T18:43:12;4.20;99.90
40996;DHT22;26723;57.478;12.066;2023-12-20T18:46:20;4.20;99.90
40996;DHT22;26723;57.478;12.066;2023-12-20T18:49:29;4.20;99.90
40996;DHT22;26723;57.478;12.066;2023-12-20T18:52:38;4.20;99.90
40996;DHT22;26723;57.478;12.066;2023-12-20T18:55:47;4.20;99.90
40996;DHT22;26723;57.478;12.066;2023-12-20T18:58:57;4.20;99.90
40996;DHT22;26723;57.478;12.066;2023-12-20T19:02:08;4.10;99.90
40996;DHT22;26723;57.478;12.066;2023-12-20T19:05:19;4.20;99.90
40996;DHT22;26723;57.478;12.066;2023-12-20T19:08:27;4.20;99.90
40996;DHT22;26723;57.478;12.066;2023-12-20T19:11:36;4.30;99.90
40996;DHT22;26723;57.478;12.066;2023-12-20T19:14:46;4.30;99.90
40996;DHT22;26723;57.478;12.066;2023-12-20T19:17:55;4.20;99.90
40996;DHT22;26723;57.478;12.066;2023-12-20T19:21:04;4.20;99.90
40996;DHT22;26723;57.478;12.066;2023-12-20T19:24:16;4.10;99.90
40996;DHT22;26723;57.478;12.066;2023-12-20T19:27:25;4.20;99.90
40996;DHT22;26723;57.478;12.066;2023-12-20T19:30:35;4.20;99.90
40996;DHT22;26723;57.478;12.066;2023-12-20T19:33:44;4.20;99.90
40996;DHT22;26723;57.478;12.066;2023-12-20T19:36:57;4.20;99.90
40996;DHT22;26723;57.478;12.066;2023-12-20T19:40:08;4.20;99.90
40996;DHT22;26723;57.478;12.066;2023-12-20T19:43:17;4.20;99.90
40996;DHT22;26723;57.478;12.066;2023-12-20T19:46:27;4.10;99.90
40996;DHT22;26723;57.478;12.066;2023-12-20T19:49:37;4.20;99.90
40996;DHT22;26723;57.478;12.066;2023-12-20T19:52:48;4.20;99.90
40996;DHT22;26723;57.478;12.066;2023-12-20T19:55:57;4.20;99.90